Bookmark and Share
Track history (hours):
 

Drifting buoy 61939

Last reported at 2012-Jun-11 01:30 UTC. Time now 2014-Apr-23 12:41 UTC.
Position N 42°34' E 005°10'.
Warning: this ship's position is years out of date!

Water temperature 18.2 ° C

NotesDate/timePositionNaut miles runAvg speedWind from/ knotsBaromVisibWave heightAir tempDewpointWater temp
2012-Jun-11 01:30N 42°34' E 005°10'0 0.3 18.2
2012-Jun-11 01:00N 42°34' E 005°09'1 0.3 18.2
2012-Jun-10 22:30N 42°34' E 005°08'0 0.4 18.4
2012-Jun-10 22:00N 42°34' E 005°08'0 0.4 18.4
2012-Jun-10 21:00N 42°34' E 005°08'0 0.5 18.4
2012-Jun-10 20:30N 42°34' E 005°07'0 0.4 18.4
2012-Jun-10 20:00N 42°34' E 005°07'1 0.3 18.8
2012-Jun-10 15:00N 42°33' E 005°06'0 0.1 19.1
2012-Jun-10 14:30N 42°33' E 005°06'0 0.0 19.0
2012-Jun-10 13:00N 42°33' E 005°06'0 0.1 19.2
2012-Jun-10 11:00N 42°33' E 005°06'0 0.2 18.6
2012-Jun-10 10:30N 42°33' E 005°06'0 0.3 18.5
2012-Jun-10 09:30N 42°33' E 005°06'0 0.3 18.4
2012-Jun-10 09:00N 42°33' E 005°05'1 0.3 18.4
2012-Jun-10 04:30N 42°32' E 005°04'0 0.3 18.1
2012-Jun-10 04:00N 42°32' E 005°04'0 0.3 18.2
2012-Jun-10 03:30N 42°32' E 005°04'0 0.4 18.2
2012-Jun-10 03:00N 42°32' E 005°03'0 0.3 18.2
2012-Jun-10 02:00N 42°32' E 005°03'0 0.3 18.2
2012-Jun-10 01:30N 42°32' E 005°03'0 0.3 18.2
2012-Jun-10 01:00N 42°32' E 005°03'1 0.2 18.2
2012-Jun-09 21:00N 42°31' E 005°03'0 0.1 18.0
2012-Jun-09 19:30N 42°31' E 005°03'0 0.1 18.1
2012-Jun-09 19:00N 42°31' E 005°03'0 0.1 18.1
2012-Jun-09 16:30N 42°31' E 005°03'0 0.3 18.1
2012-Jun-09 16:00N 42°31' E 005°02'0 0.3 18.2
2012-Jun-09 15:00N 42°31' E 005°02'0 0.0 18.2
2012-Jun-09 14:30N 42°31' E 005°02'1 0.3 18.2
2012-Jun-09 11:30N 42°30' E 005°01'0 0.3 18.1
2012-Jun-09 11:00N 42°30' E 005°01'1 0.4 18.1
2012-Jun-09 09:30N 42°29' E 005°00'0 0.6 18.0
2012-Jun-09 09:00N 42°29' E 005°00'1 0.2 18.0
2012-Jun-09 03:30N 42°28' E 005°01'0 0.0 18.3
2012-Jun-09 03:00N 42°28' E 005°01'0 0.0 18.3
2012-Jun-09 02:00N 42°28' E 005°01'0 0.1 18.4
2012-Jun-08 21:30N 42°28' E 005°00'0 0.2 18.7
2012-Jun-08 21:00N 42°28' E 005°00'0 0.2 18.7
2012-Jun-08 19:30N 42°28' E 004°60'0 0.2 18.7
2012-Jun-08 19:00N 42°28' E 004°60'1 0.3 18.7
2012-Jun-08 17:00N 42°28' E 004°59'1 0.3 18.8
2012-Jun-08 15:00N 42°27' E 004°59'1 0.1 18.8
2012-Jun-08 08:30N 42°26' E 004°60'0 0.1 18.6
2012-Jun-08 08:00N 42°26' E 004°60'0 0.0 18.6
2012-Jun-08 06:00N 42°26' E 004°60'1 0.2 18.5
2012-Jun-07 22:00N 42°25' E 004°59'0 0.4 18.4
2012-Jun-07 21:30N 42°25' E 004°59'0 0.2 18.4
2012-Jun-07 21:00N 42°25' E 004°59'1 0.2 18.4
2012-Jun-07 14:00N 42°24' E 005°00'0 0.1 18.6
2012-Jun-07 13:30N 42°24' E 005°00'0 0.1 18.6
2012-Jun-07 08:30N 42°24' E 005°01'0 0.1 18.4
2012-Jun-07 08:00N 42°24' E 005°01'0 0.1 18.4
2012-Jun-07 07:00N 42°23' E 005°01'0 0.1 18.3
2012-Jun-07 06:30N 42°23' E 005°01'1 0.3 18.3
2012-Jun-07 04:00N 42°23' E 005°01'0 0.3 18.4
2012-Jun-07 03:30N 42°23' E 005°01'1 0.4 18.4
2012-Jun-07 02:00N 42°22' E 005°01'1 0.3 18.4
2012-Jun-06 22:00N 42°22' E 005°03'0 0.3 18.4
2012-Jun-06 21:30N 42°22' E 005°03'0 0.3 18.4
2012-Jun-06 20:00N 42°22' E 005°04'0 0.3 18.4
2012-Jun-06 19:30N 42°22' E 005°04'0 0.2 18.4
2012-Jun-06 18:30N 42°22' E 005°04'0 0.2 18.5
2012-Jun-06 18:00N 42°22' E 005°04'0 0.0 18.6
2012-Jun-06 14:00N 42°22' E 005°04'0 0.6 18.4
2012-Jun-06 13:30N 42°22' E 005°04'2 0.3 18.4
2012-Jun-06 06:00N 42°21' E 005°07'1 0.3 17.6
2012-Jun-06 04:00N 42°21' E 005°08'0 0.2 17.6
2012-Jun-06 03:30N 42°21' E 005°08'0 0.2 17.6
2012-Jun-06 02:30N 42°21' E 005°08'0 0.2 17.6
2012-Jun-06 02:00N 42°21' E 005°08'2 0.2 17.6
2012-Jun-05 16:30N 42°20' E 005°10'0 0.5 17.8
2012-Jun-05 16:00N 42°20' E 005°10'1 0.3 17.7
2012-Jun-05 14:00N 42°20' E 005°11'0 0.2 17.6
2012-Jun-05 13:30N 42°20' E 005°11'1 0.2 17.6
2012-Jun-05 09:30N 42°20' E 005°13'2 0.3 17.5
2012-Jun-05 01:00N 42°20' E 005°15'0 0.0 18.0
2012-Jun-05 00:30N 42°20' E 005°15'1 0.3 18.1
2012-Jun-04 21:00N 42°20' E 005°17'0 0.3 18.1
2012-Jun-04 20:30N 42°20' E 005°17'1 0.4 18.1
2012-Jun-04 19:00N 42°19' E 005°18'0 0.1 18.1
2012-Jun-04 17:00N 42°19' E 005°18'0 0.2 18.2
2012-Jun-04 16:30N 42°19' E 005°18'1 0.2 18.3
2012-Jun-04 12:30N 42°19' E 005°19'0 0.0 18.8
2012-Jun-04 12:00N 42°19' E 005°19'0 0.3 18.9
2012-Jun-04 11:30N 42°19' E 005°19'2 3.7 19.0
2012-Jun-04 11:00N 42°17' E 005°21'0 0.0 19.1
2012-Jun-04 10:00N 42°17' E 005°21'0 0.0 19.2
2012-Jun-04 07:30N 42°17' E 005°21'0 0.0 19.2
2012-Jun-04 07:00N 42°17' E 005°21'0 0.0 19.3
2012-Jun-04 06:30N 42°17' E 005°21'0 0.0 19.4
2012-Jun-04 06:00N 42°17' E 005°21'0 0.1 19.4
2012-Jun-04 04:30N 42°17' E 005°21'0 0.2 19.5
2012-Jun-04 04:00N 42°17' E 005°21'0 0.2 19.5
2012-Jun-04 01:00N 42°17' E 005°22'0 0.3 19.8
2012-Jun-04 00:30N 42°17' E 005°22'0 0.2 19.9
2012-Jun-03 21:30N 42°16' E 005°22'0 0.3 20.1
2012-Jun-03 21:00N 42°16' E 005°23'0 0.1 20.3
2012-Jun-03 20:30N 42°16' E 005°23'0 0.2 20.3
2012-Jun-03 20:00N 42°16' E 005°23'0 0.2 20.3
2012-Jun-03 19:30N 42°16' E 005°23'0 0.2 20.3
2012-Jun-03 19:00N 42°16' E 005°23'0 0.3 20.3
2012-Jun-03 17:30N 42°15' E 005°23'0 0.4 20.2
2012-Jun-03 17:00N 42°15' E 005°23'1 0.3 20.2
2012-Jun-03 14:30N 42°15' E 005°23'0 0.4 21.0
2012-Jun-03 14:00N 42°15' E 005°23'0 0.3 21.1
2012-Jun-03 13:00N 42°14' E 005°24'0 0.2 21.0
2012-Jun-03 12:30N 42°14' E 005°24'0 0.3 21.2
2012-Jun-03 12:00N 42°14' E 005°24'1 0.2 21.2
2012-Jun-03 08:30N 42°14' E 005°24'0 0.1 20.0
2012-Jun-03 08:00N 42°14' E 005°24'0 0.3 20.0
2012-Jun-03 07:30N 42°13' E 005°24'0 0.3 20.0
2012-Jun-03 07:00N 42°13' E 005°24'1 0.3 20.0
2012-Jun-03 04:30N 42°13' E 005°24'0 0.3 20.0
2012-Jun-03 04:00N 42°12' E 005°24'0 0.3 20.0
2012-Jun-03 03:00N 42°12' E 005°24'0 0.3 20.0
2012-Jun-03 02:30N 42°12' E 005°24'1 0.3 20.0
2012-Jun-02 22:00N 42°11' E 005°23'0 0.4 20.7
2012-Jun-02 21:30N 42°11' E 005°23'0 0.2 20.6
2012-Jun-02 20:00N 42°10' E 005°23'0 0.3 20.7
2012-Jun-02 19:30N 42°10' E 005°23'0 0.3 20.7
2012-Jun-02 19:00N 42°10' E 005°23'0 0.1 20.8
2012-Jun-02 17:30N 42°10' E 005°23'0 0.1 20.8
2012-Jun-02 17:00N 42°10' E 005°23'0 0.2 20.8
2012-Jun-02 16:00N 42°10' E 005°23'0 0.2 20.8
2012-Jun-02 14:30N 42°10' E 005°22'0 0.2 20.7
2012-Jun-02 14:00N 42°09' E 005°22'0 0.3 20.7
2012-Jun-02 13:00N 42°09' E 005°22'0 0.3 20.4
2012-Jun-02 12:30N 42°09' E 005°22'0 0.2 20.4
2012-Jun-02 10:30N 42°09' E 005°21'0 0.2 20.2
2012-Jun-02 10:00N 42°09' E 005°21'0 0.2 20.1
2012-Jun-02 09:00N 42°09' E 005°21'0 0.3 20.0
2012-Jun-02 08:30N 42°09' E 005°21'1 0.2 20.0
2012-Jun-02 04:30N 42°09' E 005°20'0 0.3 19.7
2012-Jun-02 04:00N 42°09' E 005°19'0 0.3 19.8
2012-Jun-02 03:00N 42°08' E 005°19'0 0.3 19.9
2012-Jun-02 02:30N 42°08' E 005°19'0 0.2 20.0
2012-Jun-02 01:30N 42°08' E 005°19'0 0.1 20.0
2012-Jun-02 01:00N 42°08' E 005°19'0 0.1 20.0
2012-Jun-01 22:00N 42°08' E 005°18'0 0.2 20.3
2012-Jun-01 20:30N 42°08' E 005°18'0 0.2 20.2
2012-Jun-01 20:00N 42°08' E 005°18'0 0.2 20.3
2012-Jun-01 19:30N 42°08' E 005°18'0 0.3 20.2
2012-Jun-01 19:00N 42°09' E 005°18'0 0.4 20.1
2012-Jun-01 18:30N 42°09' E 005°18'0 0.4 20.0
2012-Jun-01 18:00N 42°09' E 005°17'0 0.4 20.0
2012-Jun-01 17:30N 42°09' E 005°17'1 0.3 20.0
2012-Jun-01 16:00N 42°09' E 005°17'0 0.4 20.0
2012-Jun-01 15:00N 42°09' E 005°16'0 0.4 20.1
2012-Jun-01 14:30N 42°09' E 005°16'0 0.3 20.1
2012-Jun-01 13:00N 42°09' E 005°15'0 0.2 20.0
2012-Jun-01 12:30N 42°09' E 005°15'0 0.2 20.0
2012-Jun-01 11:30N 42°09' E 005°15'0 0.2 19.9
2012-Jun-01 11:00N 42°09' E 005°15'0 0.2 19.8
2012-Jun-01 10:30N 42°09' E 005°15'0 0.0 19.7
2012-Jun-01 09:30N 42°09' E 005°15'0 0.0 19.6
2012-Jun-01 09:00N 42°09' E 005°15'1 0.2 19.6
2012-Jun-01 05:00N 42°10' E 005°15'0 0.2 19.0
2012-Jun-01 04:30N 42°10' E 005°15'0 0.4 18.9
2012-Jun-01 03:30N 42°11' E 005°15'0 0.5 18.8
2012-Jun-01 03:00N 42°11' E 005°15'1 0.4 18.9
2012-Jun-01 01:30N 42°12' E 005°14'   19.2

Dump ship's entire track history

sailing weather and tide predictions

Buoy 61939